This is the latest recevied weather packets stored in our database for station/object VU3IZK-13. If no packets are shown the sender has not sent any weather packets the latest 1 day(s).
| Time | Temp. | Humidity | Pressure | Rain* | Wind** | Luminosity | Snow |
|---|---|---|---|---|---|---|---|
| 1778013035 | 22.78° C | 88% | 0 hPa | 0 mm | 0.89 m/s, 201° | - | - |
| 1778012115 | 22.78° C | 90% | 0 hPa | 0 mm | 1.34 m/s, 219° | - | - |
| 1778011210 | 22.78° C | 89% | 0 hPa | 0 mm | 1.34 m/s, 187° | - | - |
| 1778010332 | 22.78° C | 89% | 0 hPa | 0 mm | 1.79 m/s, 190° | - | - |
| 1778009432 | 22.78° C | 89% | 0 hPa | 1.78 mm | 1.79 m/s, 240° | - | - |
| 1778008511 | 23.33° C | 89% | 0 hPa | 1.78 mm | 2.68 m/s, 274° | - | - |
| 1778007612 | 23.33° C | 87% | 0 hPa | 1.78 mm | 0.89 m/s, 187° | - | - |
| 1778005836 | 23.33° C | 87% | 0 hPa | 3.81 mm | 0.89 m/s, 265° | - | - |
| 1778004911 | 23.33° C | 84% | 0 hPa | 0.25 mm | 0.45 m/s, 178° | - | - |
| 1778004032 | 23.33° C | 84% | 0 hPa | 0.25 mm | 0 m/s | - | - |
| 1778003119 | 23.33° C | 84% | 0 hPa | 0 mm | 0.45 m/s, 168° | - | - |
| 1778002239 | 23.33° C | 83% | 0 hPa | 0.25 mm | 0.45 m/s, 174° | - | - |
| 1778001315 | 23.89° C | 83% | 0 hPa | 0.25 mm | 0.45 m/s, 195° | - | - |
| 1778000414 | 23.89° C | 83% | 0 hPa | 0 mm | 0.89 m/s, 191° | - | - |
| 1777999536 | 23.89° C | 84% | 0 hPa | 0 mm | 1.34 m/s, 167° | - | - |
| 1777998615 | 23.89° C | 84% | 0 hPa | 0 mm | 0.45 m/s, 163° | - | - |
| 1777997707 | 24.44° C | 84% | 0 hPa | 0 mm | 1.34 m/s, 176° | - | - |
| 1777996829 | 24.44° C | 82% | 0 hPa | 0 mm | 1.34 m/s, 191° | - | - |
| 1777995909 | 24.44° C | 82% | 0 hPa | 0 mm | 0.89 m/s, 284° | - | - |
| 1777995006 | 25° C | 81% | 0 hPa | 0 mm | 3.58 m/s, 237° | - | - |
| 1777994129 | 25° C | 81% | 0 hPa | 0 mm | 2.24 m/s, 198° | - | - |
| 1777993206 | 25° C | 80% | 0 hPa | 0 mm | 1.34 m/s, 214° | - | - |
| 1777992349 | 25.56° C | 78% | 0 hPa | 0 mm | 2.24 m/s, 243° | - | - |
| 1777991419 | 25.56° C | 77% | 0 hPa | 0 mm | 1.79 m/s, 200° | - | - |
| 1777990516 | 26.11° C | 74% | 0 hPa | 0 mm | 2.68 m/s, 228° | - | - |
* Rain latest hour (hover to see other rain measurements)
** Current wind speed in m/s (hover to see current wind gust speed)